KPSX

Details ICAO KPSX (PSX)
Name PALACIOS MUNI
Region United States
Timezone America/Chicago (UTC-5.0)
Plans Departing 1
Arriving 6
Stats Elevation 14 ft / 4 m (AMSL)
Location 28.727509° -96.250957°
Runways 3
Magnetic Variation 2.976° E
Sunrise 2018-05-26 11:30:21 UTC / 2018-05-26 06:30:21 Local
Sunset 2018-05-27 01:16:41 UTC / 2018-05-26 20:16:41 Local
Advertisement - Login to hide

Runways

ID Width Length Bearing (true) Bearing (mag) Surface Threshold Offset Overrun Length
08 150 ft / 46 m 4,993 ft / 1,522 m 90.22° 87.24° Concrete 0 ft / 0 m 0 ft / 0 m
13 150 ft / 46 m 5,006 ft / 1,526 m 135.35° 132.37° Concrete 0 ft / 0 m 0 ft / 0 m
17 150 ft / 46 m 5,019 ft / 1,530 m 180.21° 177.23° Concrete 0 ft / 0 m 0 ft / 0 m
26 150 ft / 46 m 4,993 ft / 1,522 m 270.23° 267.25° Concrete 0 ft / 0 m 0 ft / 0 m
31 150 ft / 46 m 5,006 ft / 1,526 m 315.36° 312.38° Concrete 0 ft / 0 m 0 ft / 0 m
35 150 ft / 46 m 5,019 ft / 1,530 m 0.21° 357.23° Concrete 0 ft / 0 m 0 ft / 0 m

Map

Weather


0- 5 10 15 20 25 30 35+ Temperature / ° C

Clouds and Precipitation
Forecast for 2018-05-26 06:00 UTC. Updated 2 hours ago

Ground ~20,000 ft ~40,000 ft Winds

METAR

KPSX 260653Z AUTO 18008KT 10SM SCT019 27/24 A2986 RMK AO2 SLP111 T02720244

TAF

Not found

Frequencies

Recorded 118.02 MHz ASOS
Unicom 122.80 MHz CTAF/UNICOM
Warning: Do not use this data for real-world aviation or navigation. No guarantee of current accuracy is given.